createdAt,value
2022-07-26T00:00:54.541Z,55.43
2022-07-26T00:01:58.754Z,55.50
2022-07-26T00:03:02.706Z,55.91
2022-07-26T00:04:19.016Z,56.04
2022-07-26T00:05:22.921Z,55.87
2022-07-26T00:06:27.111Z,55.83
2022-07-26T00:07:36.543Z,55.85
2022-07-26T00:08:41.128Z,55.67
2022-07-26T00:09:48.366Z,55.51
2022-07-26T00:10:53.247Z,55.32
2022-07-26T00:11:57.046Z,55.52
2022-07-26T00:13:01.040Z,55.59
2022-07-26T00:14:08.610Z,55.80
2022-07-26T00:15:12.606Z,55.86
2022-07-26T00:16:16.872Z,56.11
2022-07-26T00:17:20.967Z,55.83
2022-07-26T00:18:25.174Z,55.97
2022-07-26T00:19:28.977Z,56.17
2022-07-26T00:20:33.856Z,56.21
2022-07-26T00:21:40.712Z,56.56
2022-07-26T00:22:45.675Z,56.63
2022-07-26T00:23:49.729Z,56.61
2022-07-26T00:24:53.813Z,56.94
2022-07-26T00:25:58.875Z,57.08
2022-07-26T00:27:04.110Z,57.52
2022-07-26T00:28:09.832Z,57.32
2022-07-26T00:29:13.873Z,56.69
2022-07-26T00:30:17.978Z,56.80
2022-07-26T00:31:22.221Z,56.81
2022-07-26T00:32:26.572Z,56.96
2022-07-26T00:33:30.595Z,56.98
2022-07-26T00:34:34.486Z,56.91
2022-07-26T00:35:38.598Z,56.73
2022-07-26T00:36:44.270Z,57.21
2022-07-26T00:37:48.425Z,57.24
2022-07-26T00:38:52.304Z,57.20
2022-07-26T00:39:56.150Z,57.51
2022-07-26T00:41:00.320Z,57.60
2022-07-26T00:42:04.348Z,57.69
2022-07-26T00:43:08.455Z,57.92
2022-07-26T00:44:12.517Z,58.37
2022-07-26T00:45:18.075Z,58.05
2022-07-26T00:46:21.894Z,58.33
2022-07-26T00:47:25.943Z,58.15
2022-07-26T00:48:29.933Z,58.29
2022-07-26T00:49:34.164Z,58.18
2022-07-26T00:50:38.713Z,58.18
2022-07-26T00:51:46.646Z,58.40
2022-07-26T00:52:51.924Z,58.24
2022-07-26T00:53:55.900Z,58.65
2022-07-26T00:54:59.993Z,58.40
2022-07-26T00:56:03.881Z,58.50
2022-07-26T00:57:07.814Z,58.36
2022-07-26T00:58:13.733Z,58.43
2022-07-26T00:59:17.724Z,58.28
2022-07-26T01:00:28.730Z,58.60
2022-07-26T01:01:32.881Z,58.70
2022-07-26T01:02:36.861Z,58.53
2022-07-26T01:03:41.941Z,58.79
2022-07-26T01:04:46.914Z,58.97
2022-07-26T01:05:51.786Z,59.29
2022-07-26T01:06:56.357Z,58.96
2022-07-26T01:08:00.607Z,59.25
2022-07-26T01:09:05.708Z,59.29
2022-07-26T01:10:15.574Z,59.43
2022-07-26T01:11:20.182Z,59.41
2022-07-26T01:12:24.828Z,59.26
2022-07-26T01:13:33.252Z,59.58
2022-07-26T01:14:42.146Z,59.74
2022-07-26T01:15:46.168Z,59.83
2022-07-26T01:16:52.142Z,59.93
2022-07-26T01:17:56.031Z,60.01
2022-07-26T01:19:00.302Z,60.02
2022-07-26T01:20:08.087Z,59.85
2022-07-26T01:21:13.744Z,59.95
2022-07-26T01:22:18.221Z,59.76
2022-07-26T01:23:22.193Z,60.08
2022-07-26T01:24:26.214Z,60.14
2022-07-26T01:25:43.214Z,60.25
2022-07-26T01:26:49.838Z,59.85
2022-07-26T01:27:55.259Z,60.42
2022-07-26T01:28:59.896Z,60.43
2022-07-26T01:30:04.415Z,60.24
2022-07-26T01:31:09.140Z,60.24
2022-07-26T01:32:14.876Z,60.21
2022-07-26T01:33:18.974Z,60.40
2022-07-26T01:34:23.318Z,60.36
2022-07-26T01:35:29.179Z,60.23
2022-07-26T01:36:34.153Z,60.05
2022-07-26T01:37:38.376Z,59.97
2022-07-26T01:38:43.216Z,59.93
2022-07-26T01:39:46.966Z,59.93
2022-07-26T01:40:50.841Z,59.79
2022-07-26T01:41:56.960Z,59.95
2022-07-26T01:43:00.732Z,59.85
2022-07-26T01:44:05.379Z,59.92
2022-07-26T01:45:11.999Z,60.07
2022-07-26T01:46:16.043Z,60.22
2022-07-26T01:47:20.134Z,60.28
2022-07-26T01:48:24.082Z,60.49
2022-07-26T01:49:27.961Z,60.77
2022-07-26T01:50:31.922Z,60.99
2022-07-26T01:51:36.322Z,60.68
2022-07-26T01:52:40.156Z,60.63
2022-07-26T01:53:46.089Z,61.08
2022-07-26T01:54:50.030Z,61.03
2022-07-26T01:55:54.213Z,61.03
2022-07-26T01:56:58.135Z,61.02
2022-07-26T01:58:02.158Z,60.98
2022-07-26T01:59:06.040Z,61.03
2022-07-26T02:00:11.033Z,61.27
2022-07-26T02:01:15.042Z,61.24
2022-07-26T02:02:19.116Z,60.74
2022-07-26T02:03:23.106Z,61.07
2022-07-26T02:04:45.552Z,61.21
2022-07-26T02:05:49.318Z,61.22
2022-07-26T02:06:53.158Z,60.97
2022-07-26T02:07:58.671Z,60.72
2022-07-26T02:09:03.834Z,60.93
2022-07-26T02:10:14.506Z,61.18
2022-07-26T02:11:18.718Z,61.21
2022-07-26T02:12:22.744Z,61.26
2022-07-26T02:13:31.433Z,61.30
2022-07-26T02:14:35.696Z,61.25
2022-07-26T02:15:39.717Z,61.29
2022-07-26T02:16:43.961Z,61.49
2022-07-26T02:17:48.232Z,61.40
2022-07-26T02:18:51.997Z,61.53
2022-07-26T02:19:55.832Z,61.67
2022-07-26T02:21:02.644Z,61.94
2022-07-26T02:22:06.632Z,62.08
2022-07-26T02:23:10.521Z,62.01
2022-07-26T02:24:14.216Z,62.10
2022-07-26T02:25:18.051Z,61.85
2022-07-26T02:26:23.141Z,61.99
2022-07-26T02:27:27.957Z,62.19
2022-07-26T02:28:31.837Z,62.07
2022-07-26T02:29:36.719Z,62.01
2022-07-26T02:30:41.711Z,62.12
2022-07-26T02:31:48.265Z,61.96
2022-07-26T02:32:52.939Z,62.25
2022-07-26T02:33:57.059Z,62.28
2022-07-26T02:35:00.988Z,62.37
2022-07-26T02:36:07.024Z,62.13
2022-07-26T02:37:11.346Z,62.33
2022-07-26T02:38:17.113Z,62.33
2022-07-26T02:39:27.726Z,62.45
2022-07-26T02:40:32.755Z,62.59
2022-07-26T02:41:37.357Z,62.53
2022-07-26T02:42:41.133Z,62.52
2022-07-26T02:43:45.029Z,62.51
2022-07-26T02:44:48.862Z,62.29
2022-07-26T02:46:01.073Z,62.27
2022-07-26T02:47:06.080Z,62.24
2022-07-26T02:48:09.884Z,62.30
2022-07-26T02:49:13.727Z,62.32
2022-07-26T02:50:24.796Z,62.55
2022-07-26T02:51:29.035Z,62.41
2022-07-26T02:52:33.046Z,62.50
2022-07-26T02:53:36.820Z,62.33
2022-07-26T02:54:40.616Z,62.32
2022-07-26T02:55:44.235Z,62.51
2022-07-26T02:56:47.907Z,62.41
2022-07-26T02:57:52.157Z,62.46
2022-07-26T02:58:55.892Z,62.46
2022-07-26T02:59:59.555Z,62.37
2022-07-26T03:01:04.208Z,62.26
2022-07-26T03:02:07.914Z,62.26
2022-07-26T03:03:14.365Z,62.18
2022-07-26T03:04:18.433Z,62.10
2022-07-26T03:05:23.018Z,61.81
2022-07-26T03:06:28.782Z,61.87
2022-07-26T03:07:33.973Z,61.87
2022-07-26T03:08:37.714Z,62.04
2022-07-26T03:09:41.452Z,61.87
2022-07-26T03:10:45.397Z,62.04
2022-07-26T03:11:49.203Z,62.12
2022-07-26T03:12:53.031Z,62.42
2022-07-26T03:13:56.944Z,62.51
2022-07-26T03:15:00.852Z,62.79
2022-07-26T03:16:04.947Z,62.58
2022-07-26T03:17:08.895Z,62.52
2022-07-26T03:18:13.514Z,62.41
2022-07-26T03:19:17.900Z,62.37
2022-07-26T03:20:21.756Z,62.39
2022-07-26T03:21:25.702Z,62.37
2022-07-26T03:22:29.682Z,62.49
2022-07-26T03:23:35.127Z,62.43
2022-07-26T03:24:39.180Z,62.40
2022-07-26T03:25:44.236Z,62.45
2022-07-26T03:26:48.222Z,62.21
2022-07-26T03:27:57.161Z,62.45
2022-07-26T03:29:01.751Z,62.55
2022-07-26T03:30:07.014Z,62.60
2022-07-26T03:31:14.945Z,62.63
2022-07-26T03:32:18.748Z,62.67
2022-07-26T03:33:22.585Z,62.52
2022-07-26T03:34:27.113Z,62.60
2022-07-26T03:35:30.972Z,63.02
2022-07-26T03:36:43.502Z,62.66
2022-07-26T03:37:47.601Z,62.69
2022-07-26T03:38:51.598Z,62.53
2022-07-26T03:39:56.230Z,62.42
2022-07-26T03:41:00.450Z,62.47
2022-07-26T03:42:05.372Z,62.51
2022-07-26T03:43:09.438Z,62.71
2022-07-26T03:44:13.191Z,62.54
2022-07-26T03:45:17.588Z,62.75
2022-07-26T03:46:21.435Z,62.76
2022-07-26T03:47:25.275Z,62.76
2022-07-26T03:48:30.632Z,62.82
2022-07-26T03:49:35.099Z,62.90
2022-07-26T03:50:38.946Z,62.83
2022-07-26T03:51:43.186Z,62.75
2022-07-26T03:52:46.965Z,62.89
2022-07-26T03:53:51.392Z,62.92
2022-07-26T03:54:55.209Z,62.65
2022-07-26T03:56:17.436Z,62.96
2022-07-26T03:57:21.220Z,62.93
2022-07-26T03:58:25.049Z,62.92
2022-07-26T03:59:28.880Z,62.93
2022-07-26T04:00:32.930Z,62.68
2022-07-26T04:01:42.751Z,62.95
2022-07-26T04:02:48.890Z,62.81
2022-07-26T04:03:52.783Z,62.41
2022-07-26T04:04:57.148Z,62.23
2022-07-26T04:06:01.070Z,62.10
2022-07-26T04:07:05.138Z,61.86
2022-07-26T04:08:09.171Z,61.94
2022-07-26T04:09:13.658Z,61.70
2022-07-26T04:10:18.375Z,61.84
2022-07-26T04:11:22.669Z,61.76
2022-07-26T04:12:30.431Z,61.51
2022-07-26T04:13:35.657Z,61.57
2022-07-26T04:14:42.701Z,61.35
2022-07-26T04:15:47.133Z,61.37
2022-07-26T04:16:51.101Z,61.33
2022-07-26T04:17:54.977Z,61.24
2022-07-26T04:18:59.321Z,61.00
2022-07-26T04:20:03.273Z,61.00
2022-07-26T04:21:07.204Z,60.92
2022-07-26T04:22:10.951Z,60.86
2022-07-26T04:23:14.732Z,60.63
2022-07-26T04:24:18.442Z,60.52
2022-07-26T04:25:22.480Z,60.48
2022-07-26T04:26:26.810Z,60.37
2022-07-26T04:27:31.138Z,60.37
2022-07-26T04:28:34.907Z,60.25
2022-07-26T04:29:38.547Z,60.17
2022-07-26T04:30:42.485Z,59.80
2022-07-26T04:31:46.562Z,59.77
2022-07-26T04:32:50.364Z,59.69
2022-07-26T04:33:54.446Z,59.54
2022-07-26T04:34:58.309Z,59.46
2022-07-26T04:36:03.482Z,59.18
2022-07-26T04:37:07.249Z,59.13
2022-07-26T04:38:11.073Z,59.09
2022-07-26T04:39:14.835Z,59.07
2022-07-26T04:40:21.698Z,58.88
2022-07-26T04:41:28.073Z,58.96
2022-07-26T04:42:31.947Z,58.80
2022-07-26T04:43:35.954Z,58.69
2022-07-26T04:44:39.759Z,58.62
2022-07-26T04:45:48.890Z,58.38
2022-07-26T04:46:53.381Z,58.44
2022-07-26T04:47:58.834Z,58.11
2022-07-26T04:49:02.745Z,58.47
2022-07-26T04:50:07.384Z,58.22
2022-07-26T04:51:11.333Z,58.22
2022-07-26T04:52:15.121Z,58.10
2022-07-26T04:53:19.231Z,58.02
2022-07-26T04:54:23.115Z,57.77
2022-07-26T04:55:26.825Z,57.51
2022-07-26T04:56:30.820Z,57.41
2022-07-26T04:57:34.830Z,57.12
2022-07-26T04:58:40.047Z,56.99
2022-07-26T04:59:43.788Z,56.83
2022-07-26T05:02:15.396Z,56.43
2022-07-26T05:03:19.677Z,55.92
2022-07-26T05:04:23.794Z,55.65
2022-07-26T05:05:31.580Z,55.40
2022-07-26T05:06:35.390Z,55.10
2022-07-26T05:07:47.842Z,54.64
2022-07-26T05:08:51.572Z,54.45
2022-07-26T05:09:55.376Z,54.48
2022-07-26T05:10:59.182Z,54.42
2022-07-26T05:12:03.543Z,54.25
2022-07-26T05:13:07.969Z,54.03
2022-07-26T05:14:11.955Z,53.92
2022-07-26T05:15:17.064Z,53.65
2022-07-26T05:16:20.971Z,53.75
2022-07-26T05:17:27.027Z,53.73
2022-07-26T05:18:43.888Z,53.86
2022-07-26T05:19:54.458Z,53.23
2022-07-26T05:20:58.618Z,53.30
2022-07-26T05:22:02.404Z,53.12
2022-07-26T05:23:06.776Z,52.68
2022-07-26T05:24:11.292Z,52.58
2022-07-26T05:25:15.453Z,52.34
2022-07-26T05:26:19.195Z,52.07
2022-07-26T05:27:22.985Z,52.12
2022-07-26T05:28:26.857Z,51.85
2022-07-26T05:29:32.489Z,51.69
2022-07-26T05:30:36.421Z,51.75
2022-07-26T05:31:40.624Z,51.65
2022-07-26T05:32:44.875Z,51.38
2022-07-26T05:33:48.775Z,51.23
2022-07-26T05:34:52.640Z,51.41
2022-07-26T05:35:56.376Z,51.21
2022-07-26T05:37:00.100Z,51.20
2022-07-26T05:38:04.093Z,51.04
2022-07-26T05:39:11.619Z,50.59
2022-07-26T05:40:17.972Z,50.51
2022-07-26T05:41:22.140Z,50.40
2022-07-26T05:42:26.973Z,50.10
2022-07-26T05:43:41.040Z,49.86
2022-07-26T05:44:46.135Z,49.96
2022-07-26T05:45:50.195Z,49.93
2022-07-26T05:46:54.094Z,49.74
2022-07-26T05:47:58.005Z,49.77
2022-07-26T05:49:02.503Z,49.59
2022-07-26T05:50:07.942Z,49.37
2022-07-26T05:51:12.299Z,48.89
2022-07-26T05:52:16.797Z,48.61
2022-07-26T05:53:20.718Z,48.71
2022-07-26T05:54:24.408Z,48.18
2022-07-26T05:55:28.419Z,47.79
2022-07-26T05:56:32.157Z,47.41
2022-07-26T05:57:35.990Z,47.23
2022-07-26T05:58:39.946Z,46.67
2022-07-26T05:59:43.642Z,46.49
2022-07-26T06:00:48.685Z,46.25
2022-07-26T06:01:56.531Z,46.17
2022-07-26T06:03:00.525Z,45.54
2022-07-26T06:04:04.716Z,45.76
2022-07-26T06:05:09.357Z,45.20
2022-07-26T06:06:13.196Z,45.40
2022-07-26T06:07:17.073Z,44.67
2022-07-26T06:08:21.995Z,44.46
2022-07-26T06:09:27.152Z,44.09
2022-07-26T06:10:30.929Z,43.60
2022-07-26T06:11:34.697Z,43.16
2022-07-26T06:12:38.530Z,42.67
2022-07-26T06:13:42.534Z,42.64
2022-07-26T06:14:46.442Z,42.21
2022-07-26T06:15:50.961Z,41.85
2022-07-26T06:16:55.780Z,41.68
2022-07-26T06:17:59.738Z,41.64
2022-07-26T06:19:03.659Z,41.80
2022-07-26T06:20:08.179Z,42.14
2022-07-26T06:21:12.978Z,41.81
2022-07-26T06:22:16.843Z,42.54
2022-07-26T06:23:34.046Z,42.57
2022-07-26T06:24:38.672Z,43.17
2022-07-26T06:25:42.468Z,43.34
2022-07-26T06:26:46.852Z,43.20
2022-07-26T06:27:50.876Z,43.88
2022-07-26T06:28:54.828Z,43.81
2022-07-26T06:29:58.708Z,43.25
2022-07-26T06:31:02.428Z,43.25
2022-07-26T06:32:07.034Z,43.26
2022-07-26T06:33:11.639Z,43.35
2022-07-26T06:34:17.056Z,42.90
2022-07-26T06:35:21.041Z,43.25
2022-07-26T06:36:28.668Z,42.37
2022-07-26T06:37:38.374Z,42.15
2022-07-26T06:38:42.148Z,42.04
2022-07-26T06:39:46.489Z,41.52
2022-07-26T06:40:50.462Z,40.82
2022-07-26T06:41:54.247Z,40.79
2022-07-26T06:43:02.601Z,40.07
2022-07-26T06:44:08.424Z,39.52
2022-07-26T06:45:12.757Z,39.04
2022-07-26T06:46:17.443Z,38.69
2022-07-26T06:47:21.470Z,38.34
2022-07-26T06:48:25.223Z,37.81
2022-07-26T06:49:29.186Z,37.33
2022-07-26T06:50:33.417Z,37.14
2022-07-26T06:51:37.529Z,36.58
2022-07-26T06:52:41.291Z,35.97
2022-07-26T06:53:51.626Z,35.32
2022-07-26T06:54:55.410Z,35.22
2022-07-26T06:55:59.695Z,34.84
2022-07-26T06:57:03.546Z,34.42
2022-07-26T06:58:07.619Z,34.37
2022-07-26T06:59:11.597Z,33.94
2022-07-26T07:00:16.691Z,33.86
2022-07-26T07:01:55.599Z,33.58
2022-07-26T07:02:44.491Z,34.18
2022-07-26T07:03:48.521Z,34.33
2022-07-26T07:04:52.571Z,34.65
2022-07-26T07:05:56.776Z,35.53
2022-07-26T07:07:06.509Z,35.73
2022-07-26T07:08:11.563Z,36.26
2022-07-26T07:09:15.362Z,36.40
2022-07-26T07:10:19.807Z,36.30
2022-07-26T07:11:27.603Z,36.13
2022-07-26T07:12:32.869Z,35.82
2022-07-26T07:13:36.676Z,35.88
2022-07-26T07:14:40.603Z,35.22
2022-07-26T07:15:44.650Z,34.78
2022-07-26T07:16:48.516Z,34.67
2022-07-26T07:17:52.560Z,34.34
2022-07-26T07:18:56.371Z,33.87
2022-07-26T07:20:00.696Z,33.65
2022-07-26T07:21:04.885Z,33.35
2022-07-26T07:22:12.498Z,33.41
2022-07-26T07:23:16.644Z,33.00
2022-07-26T07:24:20.673Z,32.70
2022-07-26T07:25:30.513Z,32.81
2022-07-26T07:26:34.720Z,32.50
2022-07-26T07:27:41.601Z,32.11
2022-07-26T07:28:46.175Z,31.46
2022-07-26T07:29:52.722Z,31.31
2022-07-26T07:30:56.811Z,30.89
2022-07-26T07:32:03.390Z,30.83
2022-07-26T07:33:09.601Z,30.68
2022-07-26T07:34:26.982Z,30.83
2022-07-26T07:35:31.937Z,31.30
2022-07-26T07:36:36.029Z,31.57
2022-07-26T07:37:53.444Z,31.59
2022-07-26T07:38:59.191Z,31.70
2022-07-26T07:40:11.581Z,31.85
2022-07-26T07:41:15.645Z,31.71
2022-07-26T07:42:21.093Z,31.50
2022-07-26T07:43:24.891Z,31.10
2022-07-26T07:44:30.781Z,31.03
2022-07-26T07:45:35.342Z,31.02
2022-07-26T07:46:39.350Z,30.79
2022-07-26T07:47:43.966Z,30.63
2022-07-26T07:48:48.277Z,30.25
2022-07-26T07:49:52.461Z,30.03
2022-07-26T07:50:56.783Z,29.92
2022-07-26T07:52:01.414Z,29.63
2022-07-26T07:53:07.371Z,29.28
2022-07-26T07:54:11.122Z,29.17
2022-07-26T07:55:41.099Z,29.18
2022-07-26T07:56:38.896Z,28.51
2022-07-26T07:57:43.070Z,28.17
2022-07-26T07:58:47.703Z,28.04
2022-07-26T07:59:52.565Z,27.90
2022-07-26T08:00:57.468Z,27.67
2022-07-26T08:02:02.310Z,27.73
2022-07-26T08:03:06.139Z,27.42
2022-07-26T08:04:10.373Z,27.43
2022-07-26T08:05:15.619Z,27.17
2022-07-26T08:06:20.051Z,27.55
2022-07-26T08:07:24.065Z,26.76
2022-07-26T08:08:38.387Z,26.51
2022-07-26T08:09:43.025Z,26.49
2022-07-26T08:10:51.953Z,26.23
2022-07-26T08:11:56.943Z,26.72
2022-07-26T08:13:00.877Z,26.15
2022-07-26T08:14:05.437Z,26.86
2022-07-26T08:15:10.890Z,27.10
2022-07-26T08:16:15.154Z,27.11
2022-07-26T08:17:19.146Z,26.89
2022-07-26T08:18:26.683Z,27.14
2022-07-26T08:19:41.869Z,26.81
2022-07-26T08:20:46.637Z,27.41
2022-07-26T08:21:50.551Z,27.17
2022-07-26T08:22:56.615Z,27.63
2022-07-26T08:24:00.491Z,27.44
2022-07-26T08:25:05.469Z,27.64
2022-07-26T08:26:09.611Z,27.76
2022-07-26T08:27:14.857Z,28.07
2022-07-26T08:28:45.088Z,28.57
2022-07-26T08:29:42.546Z,29.24
2022-07-26T08:30:46.304Z,29.71
2022-07-26T08:31:50.987Z,30.35
2022-07-26T08:32:55.085Z,31.13
2022-07-26T08:33:59.079Z,31.77
2022-07-26T08:35:17.782Z,32.55
2022-07-26T08:36:26.187Z,33.58
2022-07-26T08:37:34.936Z,34.08
2022-07-26T08:38:38.700Z,34.54
2022-07-26T08:39:42.568Z,35.25
2022-07-26T08:40:46.424Z,35.75
2022-07-26T08:41:50.392Z,36.18
2022-07-26T08:42:56.947Z,36.99
2022-07-26T08:44:09.858Z,37.34
2022-07-26T08:45:14.578Z,38.18
2022-07-26T08:46:24.484Z,38.65
2022-07-26T08:47:42.824Z,38.89
2022-07-26T08:48:53.954Z,39.49
2022-07-26T08:49:57.922Z,40.02
2022-07-26T08:51:11.248Z,39.96
2022-07-26T08:52:16.193Z,40.57
2022-07-26T08:53:21.090Z,41.02
2022-07-26T08:54:27.395Z,41.13
2022-07-26T08:55:50.318Z,41.73
2022-07-26T08:56:55.694Z,42.20
2022-07-26T08:58:02.070Z,42.58
2022-07-26T08:59:19.395Z,43.33
2022-07-26T09:00:30.273Z,43.94
2022-07-26T09:01:34.199Z,44.58
2022-07-26T09:02:42.164Z,45.23
2022-07-26T09:03:46.514Z,45.38
2022-07-26T09:04:50.426Z,45.86
2022-07-26T09:05:54.768Z,46.41
2022-07-26T09:07:11.332Z,46.34
2022-07-26T09:08:29.924Z,46.53
2022-07-26T09:09:57.581Z,47.35
2022-07-26T09:11:03.018Z,47.71
2022-07-26T09:12:19.907Z,47.91
2022-07-26T09:13:24.163Z,48.36
2022-07-26T09:14:38.428Z,48.10
2022-07-26T09:15:43.233Z,48.37
2022-07-26T09:17:00.780Z,49.53
2022-07-26T09:18:04.746Z,49.46
2022-07-26T09:19:22.927Z,49.54
2022-07-26T09:20:31.260Z,49.71
2022-07-26T09:21:36.674Z,49.87
2022-07-26T09:23:02.285Z,49.99
2022-07-26T09:24:06.841Z,50.39
2022-07-26T09:25:23.695Z,50.52
2022-07-26T09:26:28.441Z,50.04
2022-07-26T09:27:37.484Z,50.26
2022-07-26T09:28:45.089Z,50.03
2022-07-26T09:29:55.375Z,50.27
2022-07-26T09:31:06.530Z,49.96
2022-07-26T09:32:21.738Z,50.00
2022-07-26T09:33:26.727Z,50.04
2022-07-26T09:34:30.762Z,50.21
2022-07-26T09:35:49.973Z,50.12
2022-07-26T09:36:56.166Z,49.88
2022-07-26T09:38:01.847Z,50.20
2022-07-26T09:39:05.881Z,50.04
2022-07-26T09:40:16.060Z,50.13
2022-07-26T09:41:32.293Z,49.80
2022-07-26T09:42:36.993Z,50.20
2022-07-26T09:43:41.032Z,50.07
2022-07-26T09:44:47.851Z,50.21
2022-07-26T09:46:07.539Z,50.35
2022-07-26T09:47:11.709Z,50.47
2022-07-26T09:48:36.541Z,50.60
2022-07-26T09:49:50.251Z,50.58
2022-07-26T09:50:54.287Z,50.72
2022-07-26T09:51:58.112Z,50.61
2022-07-26T09:53:13.427Z,50.91
2022-07-26T09:54:29.467Z,51.27
2022-07-26T09:55:46.700Z,51.37
2022-07-26T09:56:53.240Z,51.68
2022-07-26T09:58:00.013Z,51.71
2022-07-26T09:59:05.336Z,51.47
2022-07-26T10:00:10.132Z,52.78
2022-07-26T10:01:13.931Z,52.47
2022-07-26T10:02:17.835Z,53.30
2022-07-26T10:03:21.978Z,52.64
2022-07-26T10:04:26.969Z,53.26
2022-07-26T10:05:33.063Z,52.99
2022-07-26T10:06:36.860Z,52.89
2022-07-26T10:07:41.062Z,53.65
2022-07-26T10:08:45.343Z,53.55
2022-07-26T10:10:20.449Z,53.80
2022-07-26T10:11:29.321Z,54.31
2022-07-26T10:12:35.171Z,53.62
2022-07-26T10:13:39.776Z,53.95
2022-07-26T10:14:51.509Z,54.35
2022-07-26T10:15:56.935Z,54.15
2022-07-26T10:17:30.812Z,55.25
2022-07-26T10:18:38.429Z,54.81
2022-07-26T10:19:45.299Z,55.54
2022-07-26T10:20:52.998Z,55.46
2022-07-26T10:22:25.316Z,55.46
2022-07-26T10:23:47.405Z,56.09
2022-07-26T10:24:58.284Z,55.75
2022-07-26T10:26:04.704Z,56.27
2022-07-26T10:27:09.586Z,55.52
2022-07-26T10:28:26.941Z,56.63
2022-07-26T10:29:30.864Z,56.38
2022-07-26T10:30:35.353Z,56.13
2022-07-26T10:31:39.595Z,55.91
2022-07-26T10:33:03.065Z,56.47
2022-07-26T10:34:07.594Z,56.03
2022-07-26T10:35:36.562Z,56.40
2022-07-26T10:36:40.704Z,55.60
2022-07-26T10:38:02.794Z,56.04
2022-07-26T10:39:16.376Z,56.07
2022-07-26T10:40:22.850Z,56.08
2022-07-26T10:42:08.110Z,56.04
2022-07-26T10:44:45.417Z,57.00
2022-07-26T10:46:10.617Z,57.33
2022-07-26T10:47:18.988Z,57.14
2022-07-26T10:48:24.851Z,57.72
2022-07-26T10:49:37.913Z,58.36
2022-07-26T10:50:45.134Z,57.77
2022-07-26T10:52:12.920Z,58.21
2022-07-26T10:53:26.620Z,58.51
2022-07-26T10:54:30.599Z,58.24
2022-07-26T10:55:53.868Z,58.40
2022-07-26T10:56:57.553Z,58.32
2022-07-26T10:58:01.329Z,58.63
2022-07-26T10:59:06.713Z,58.69
2022-07-26T11:00:25.827Z,58.41
2022-07-26T11:01:37.712Z,58.74
2022-07-26T11:02:44.075Z,58.65
2022-07-26T11:03:48.117Z,58.58
2022-07-26T11:05:15.722Z,58.76
2022-07-26T11:06:20.334Z,59.17
2022-07-26T11:07:24.161Z,58.55
2022-07-26T11:08:30.927Z,59.30
2022-07-26T11:09:35.802Z,59.25
2022-07-26T11:10:46.166Z,60.26
2022-07-26T11:11:52.676Z,60.09
2022-07-26T11:13:21.422Z,59.80
2022-07-26T11:14:26.970Z,60.34
2022-07-26T11:15:31.724Z,59.93
2022-07-26T11:16:49.003Z,60.50
2022-07-26T11:18:05.438Z,60.07
2022-07-26T11:19:26.179Z,60.36
2022-07-26T11:20:30.188Z,60.87
2022-07-26T11:21:34.163Z,60.47
2022-07-26T11:22:38.478Z,60.85
2022-07-26T11:23:48.365Z,61.10
2022-07-26T11:24:52.321Z,61.75
2022-07-26T11:26:14.047Z,61.70
2022-07-26T11:27:17.818Z,61.88
2022-07-26T11:28:21.549Z,61.44
2022-07-26T11:29:41.203Z,61.83
2022-07-26T11:31:02.180Z,61.51
2022-07-26T11:32:22.010Z,62.21
2022-07-26T11:33:45.641Z,62.07
2022-07-26T11:35:02.723Z,62.23
2022-07-26T11:36:08.343Z,62.15
2022-07-26T11:37:12.565Z,62.96
2022-07-26T11:38:16.342Z,62.52
2022-07-26T11:39:26.253Z,62.87
2022-07-26T11:40:49.037Z,63.22
2022-07-26T11:41:59.945Z,62.45
2022-07-26T11:43:04.021Z,62.77
2022-07-26T11:44:15.042Z,62.71
2022-07-26T11:45:19.694Z,62.78
2022-07-26T11:46:33.869Z,62.55
2022-07-26T11:47:37.908Z,62.37
2022-07-26T11:48:53.565Z,62.12
2022-07-26T11:50:14.306Z,61.81
2022-07-26T11:51:24.999Z,61.66
2022-07-26T11:52:32.417Z,61.63
2022-07-26T11:53:38.696Z,61.82
2022-07-26T11:54:54.779Z,62.06
2022-07-26T11:56:21.626Z,61.61
2022-07-26T11:57:32.147Z,61.89
2022-07-26T11:58:37.271Z,61.82
2022-07-26T11:59:42.028Z,61.67
2022-07-26T12:00:46.159Z,61.88
2022-07-26T12:01:50.720Z,61.68
2022-07-26T12:02:56.153Z,62.37
2022-07-26T12:04:00.327Z,62.35
2022-07-26T12:05:22.110Z,62.60
2022-07-26T12:06:29.095Z,62.54
2022-07-26T12:07:32.821Z,62.58
2022-07-26T12:08:42.260Z,62.37
2022-07-26T12:10:05.103Z,62.90
2022-07-26T12:11:10.119Z,62.96
2022-07-26T12:12:33.065Z,63.22
2022-07-26T12:14:01.898Z,63.57
2022-07-26T12:15:07.838Z,63.08
2022-07-26T12:16:11.861Z,63.37
2022-07-26T12:17:18.261Z,63.96
2022-07-26T12:18:34.236Z,65.51
2022-07-26T12:19:38.470Z,64.39
2022-07-26T12:21:07.136Z,64.97
2022-07-26T12:22:16.824Z,64.88
2022-07-26T12:23:20.655Z,64.80
2022-07-26T12:24:55.994Z,65.34
2022-07-26T12:26:25.736Z,66.34
2022-07-26T12:27:34.104Z,66.03
2022-07-26T12:28:41.839Z,66.43
2022-07-26T12:30:14.827Z,67.31
2022-07-26T12:31:34.375Z,66.89
2022-07-26T12:32:44.890Z,67.10
2022-07-26T12:33:50.326Z,66.74
2022-07-26T12:35:11.724Z,67.20
2022-07-26T12:36:28.017Z,67.09
2022-07-26T12:37:40.679Z,67.25
2022-07-26T12:38:44.857Z,67.19
2022-07-26T12:40:13.962Z,67.77
2022-07-26T12:41:39.373Z,67.98
2022-07-26T12:43:02.464Z,68.01
2022-07-26T12:44:11.958Z,68.01
2022-07-26T12:45:23.222Z,68.46
2022-07-26T12:46:27.117Z,68.26
2022-07-26T12:47:31.093Z,69.26
2022-07-26T12:48:37.147Z,70.61
2022-07-26T12:49:42.883Z,69.37
2022-07-26T12:50:49.681Z,69.92
2022-07-26T12:51:54.183Z,69.52
2022-07-26T12:53:09.349Z,70.37
2022-07-26T12:54:16.753Z,71.03
2022-07-26T12:55:22.205Z,71.12
2022-07-26T12:56:26.164Z,71.02
2022-07-26T12:57:30.035Z,70.94
2022-07-26T12:58:33.847Z,71.41
2022-07-26T12:59:42.940Z,72.06
2022-07-26T13:00:48.727Z,72.13
2022-07-26T13:01:53.215Z,72.25
2022-07-26T13:02:57.997Z,72.61
2022-07-26T13:04:02.244Z,72.91
2022-07-26T13:05:07.390Z,73.32
2022-07-26T13:06:11.339Z,74.33
2022-07-26T13:07:17.982Z,75.02
2022-07-26T13:08:21.878Z,74.37
2022-07-26T13:09:26.406Z,74.60
2022-07-26T13:10:35.023Z,75.41
2022-07-26T13:11:39.725Z,76.79
2022-07-26T13:12:43.644Z,76.41
2022-07-26T13:13:47.543Z,77.13
2022-07-26T13:14:51.641Z,77.71
2022-07-26T13:15:55.530Z,77.98
2022-07-26T13:16:59.721Z,77.82
2022-07-26T13:18:03.569Z,78.39
2022-07-26T13:19:07.535Z,78.04
2022-07-26T13:20:11.438Z,78.21
2022-07-26T13:21:15.356Z,78.31
2022-07-26T13:22:19.514Z,78.11
2022-07-26T13:23:27.278Z,78.14
2022-07-26T13:24:33.183Z,78.64
2022-07-26T13:25:39.585Z,78.76
2022-07-26T13:26:44.367Z,79.20
2022-07-26T13:27:49.277Z,79.44
2022-07-26T13:28:53.160Z,79.20
2022-07-26T13:29:56.950Z,79.67
2022-07-26T13:31:01.769Z,80.18
2022-07-26T13:32:06.937Z,80.37
2022-07-26T13:33:11.741Z,81.20
2022-07-26T13:34:15.747Z,82.11
2022-07-26T13:35:19.706Z,81.74
2022-07-26T13:36:23.548Z,82.13
2022-07-26T13:37:27.749Z,82.25
2022-07-26T13:38:33.746Z,82.89
2022-07-26T13:39:37.606Z,82.77
2022-07-26T13:40:41.459Z,83.40
2022-07-26T13:41:45.565Z,84.52
2022-07-26T13:42:53.738Z,86.10
2022-07-26T13:43:58.576Z,87.19
2022-07-26T13:45:02.509Z,86.72
2022-07-26T13:46:06.798Z,86.92
2022-07-26T13:47:10.608Z,87.67
2022-07-26T13:48:14.506Z,88.20
2022-07-26T13:49:18.363Z,87.23
2022-07-26T13:50:22.313Z,87.86
2022-07-26T13:51:49.233Z,88.86
2022-07-26T13:52:55.548Z,87.51
2022-07-26T13:53:59.204Z,87.56
2022-07-26T13:55:02.922Z,87.62
2022-07-26T13:56:07.771Z,88.43
2022-07-26T13:57:11.429Z,87.03
2022-07-26T13:58:15.183Z,87.37
2022-07-26T13:59:19.806Z,87.80
2022-07-26T14:00:23.706Z,88.91
2022-07-26T14:01:43.348Z,88.84
2022-07-26T14:02:47.785Z,87.98
2022-07-26T14:03:51.589Z,88.02
2022-07-26T14:04:55.371Z,88.21
2022-07-26T14:05:59.125Z,88.12
2022-07-26T14:07:02.922Z,88.13
2022-07-26T14:08:07.045Z,88.34
2022-07-26T14:09:11.844Z,88.04
2022-07-26T14:10:15.835Z,88.63
2022-07-26T14:11:19.855Z,88.67
2022-07-26T14:12:23.871Z,88.12
2022-07-26T14:13:27.742Z,87.34
2022-07-26T14:14:31.554Z,87.19
2022-07-26T14:15:36.305Z,87.72
2022-07-26T14:16:40.524Z,87.15
2022-07-26T14:17:47.505Z,87.40
2022-07-26T14:18:55.148Z,87.40
2022-07-26T14:19:58.881Z,87.70
2022-07-26T14:21:08.683Z,87.34
2022-07-26T14:22:14.197Z,87.13
2022-07-26T14:23:18.519Z,86.56
2022-07-26T14:24:22.369Z,86.45